sensor_id;sensor_type;location;lat;lon;timestamp;P1;durP1;ratioP1;P2;durP2;ratioP2
82656;SDS011;72357;52.110;5.252;2023-08-30T00:00:40;17.61;;;15.8;;
82656;SDS011;72357;52.110;5.252;2023-08-30T00:02:17;17.8;;;16.0;;
82656;SDS011;72357;52.110;5.252;2023-08-30T00:03:53;18.8;;;16.8;;
82656;SDS011;72357;52.110;5.252;2023-08-30T00:07:05;19.61;;;17.7;;
82656;SDS011;72357;52.110;5.252;2023-08-30T00:08:42;16.3;;;14.9;;
82656;SDS011;72357;52.110;5.252;2023-08-30T00:10:18;17.7;;;15.9;;
82656;SDS011;72357;52.110;5.252;2023-08-30T00:13:30;17.91;;;15.9;;
82656;SDS011;72357;52.110;5.252;2023-08-30T00:15:07;18.3;;;16.61;;
82656;SDS011;72357;52.110;5.252;2023-08-30T00:16:44;19.11;;;17.2;;
82656;SDS011;72357;52.110;5.252;2023-08-30T00:18:20;20.7;;;18.5;;
82656;SDS011;72357;52.110;5.252;2023-08-30T00:21:34;18.91;;;17.0;;
82656;SDS011;72357;52.110;5.252;2023-08-30T00:23:10;19.7;;;17.91;;
82656;SDS011;72357;52.110;5.252;2023-08-30T00:24:46;20.11;;;18.3;;
82656;SDS011;72357;52.110;5.252;2023-08-30T00:27:58;19.5;;;17.41;;
82656;SDS011;72357;52.110;5.252;2023-08-30T00:29:34;18.91;;;17.11;;
82656;SDS011;72357;52.110;5.252;2023-08-30T00:31:10;20.5;;;18.3;;
82656;SDS011;72357;52.110;5.252;2023-08-30T00:34:22;20.11;;;18.11;;
82656;SDS011;72357;52.110;5.252;2023-08-30T00:35:59;20.11;;;18.11;;
82656;SDS011;72357;52.110;5.252;2023-08-30T00:37:36;21.3;;;19.2;;
82656;SDS011;72357;52.110;5.252;2023-08-30T00:40:48;18.8;;;16.9;;
82656;SDS011;72357;52.110;5.252;2023-08-30T00:42:24;17.5;;;15.8;;
82656;SDS011;72357;52.110;5.252;2023-08-30T00:44:00;17.5;;;15.7;;
82656;SDS011;72357;52.110;5.252;2023-08-30T00:45:37;17.2;;;15.7;;
82656;SDS011;72357;52.110;5.252;2023-08-30T00:48:52;20.11;;;18.11;;
82656;SDS011;72357;52.110;5.252;2023-08-30T00:50:28;18.2;;;16.4;;
82656;SDS011;72357;52.110;5.252;2023-08-30T00:52:06;19.91;;;17.91;;
82656;SDS011;72357;52.110;5.252;2023-08-30T00:55:22;19.11;;;17.11;;
82656;SDS011;72357;52.110;5.252;2023-08-30T00:56:58;19.11;;;17.0;;
82656;SDS011;72357;52.110;5.252;2023-08-30T00:58:36;19.2;;;17.3;;
82656;SDS011;72357;52.110;5.252;2023-08-30T01:00:13;18.91;;;17.0;;
82656;SDS011;72357;52.110;5.252;2023-08-30T01:03:27;18.41;;;16.5;;
82656;SDS011;72357;52.110;5.252;2023-08-30T01:05:03;17.61;;;15.9;;
82656;SDS011;72357;52.110;5.252;2023-08-30T01:06:39;17.5;;;15.5;;
82656;SDS011;72357;52.110;5.252;2023-08-30T01:09:51;17.8;;;16.0;;
82656;SDS011;72357;52.110;5.252;2023-08-30T01:11:29;16.11;;;14.6;;
82656;SDS011;72357;52.110;5.252;2023-08-30T01:13:13;16.11;;;14.5;;
82656;SDS011;72357;52.110;5.252;2023-08-30T01:14:56;16.4;;;14.7;;
82656;SDS011;72357;52.110;5.252;2023-08-30T01:18:14;16.4;;;14.7;;
82656;SDS011;72357;52.110;5.252;2023-08-30T01:19:55;16.2;;;14.7;;
82656;SDS011;72357;52.110;5.252;2023-08-30T01:21:40;16.61;;;15.0;;
82656;SDS011;72357;52.110;5.252;2023-08-30T01:23:29;16.3;;;14.7;;
82656;SDS011;72357;52.110;5.252;2023-08-30T01:25:17;15.8;;;14.2;;
82656;SDS011;72357;52.110;5.252;2023-08-30T01:28:51;17.7;;;14.8;;
82656;SDS011;72357;52.110;5.252;2023-08-30T01:30:29;16.61;;;14.9;;
82656;SDS011;72357;52.110;5.252;2023-08-30T01:32:08;15.6;;;14.0;;
82656;SDS011;72357;52.110;5.252;2023-08-30T01:33:45;16.4;;;14.7;;
82656;SDS011;72357;52.110;5.252;2023-08-30T01:37:00;15.9;;;14.4;;
82656;SDS011;72357;52.110;5.252;2023-08-30T01:38:39;16.11;;;14.5;;
82656;SDS011;72357;52.110;5.252;2023-08-30T01:40:16;16.11;;;14.5;;
82656;SDS011;72357;52.110;5.252;2023-08-30T01:43:31;16.0;;;14.3;;
82656;SDS011;72357;52.110;5.252;2023-08-30T01:45:09;16.5;;;14.3;;
82656;SDS011;72357;52.110;5.252;2023-08-30T01:46:47;15.9;;;14.3;;
82656;SDS011;72357;52.110;5.252;2023-08-30T01:48:24;16.0;;;14.4;;
82656;SDS011;72357;52.110;5.252;2023-08-30T01:51:40;16.0;;;14.3;;
82656;SDS011;72357;52.110;5.252;2023-08-30T01:53:16;16.7;;;15.1;;
82656;SDS011;72357;52.110;5.252;2023-08-30T01:54:53;15.8;;;14.3;;
82656;SDS011;72357;52.110;5.252;2023-08-30T01:58:06;16.4;;;14.8;;
82656;SDS011;72357;52.110;5.252;2023-08-30T01:59:43;16.61;;;14.4;;
82656;SDS011;72357;52.110;5.252;2023-08-30T02:02:55;15.5;;;13.9;;
82656;SDS011;72357;52.110;5.252;2023-08-30T02:06:08;15.9;;;14.2;;
82656;SDS011;72357;52.110;5.252;2023-08-30T02:07:51;16.5;;;14.9;;
82656;SDS011;72357;52.110;5.252;2023-08-30T02:09:34;15.3;;;13.8;;
82656;SDS011;72357;52.110;5.252;2023-08-30T02:11:23;16.0;;;14.3;;
82656;SDS011;72357;52.110;5.252;2023-08-30T02:14:41;16.3;;;14.7;;
82656;SDS011;72357;52.110;5.252;2023-08-30T02:16:23;16.3;;;14.7;;
82656;SDS011;72357;52.110;5.252;2023-08-30T02:18:03;15.5;;;14.0;;
82656;SDS011;72357;52.110;5.252;2023-08-30T02:19:41;16.5;;;14.8;;
82656;SDS011;72357;52.110;5.252;2023-08-30T02:22:57;16.5;;;14.4;;
82656;SDS011;72357;52.110;5.252;2023-08-30T02:24:34;16.4;;;14.8;;
82656;SDS011;72357;52.110;5.252;2023-08-30T02:26:10;15.9;;;14.4;;
82656;SDS011;72357;52.110;5.252;2023-08-30T02:29:23;16.2;;;14.5;;
82656;SDS011;72357;52.110;5.252;2023-08-30T02:30:59;15.5;;;13.9;;
82656;SDS011;72357;52.110;5.252;2023-08-30T02:32:35;15.6;;;14.0;;
82656;SDS011;72357;52.110;5.252;2023-08-30T02:35:47;15.9;;;14.2;;
82656;SDS011;72357;52.110;5.252;2023-08-30T02:37:23;16.2;;;14.6;;
82656;SDS011;72357;52.110;5.252;2023-08-30T02:38:59;15.1;;;13.6;;
82656;SDS011;72357;52.110;5.252;2023-08-30T02:40:35;16.0;;;14.4;;
82656;SDS011;72357;52.110;5.252;2023-08-30T02:43:48;16.2;;;14.6;;
82656;SDS011;72357;52.110;5.252;2023-08-30T02:45:24;17.2;;;15.4;;
82656;SDS011;72357;52.110;5.252;2023-08-30T02:47:00;16.61;;;15.0;;
82656;SDS011;72357;52.110;5.252;2023-08-30T02:50:12;16.3;;;14.7;;
82656;SDS011;72357;52.110;5.252;2023-08-30T02:51:48;15.8;;;14.2;;
82656;SDS011;72357;52.110;5.252;2023-08-30T02:53:24;18.3;;;16.3;;
82656;SDS011;72357;52.110;5.252;2023-08-30T02:56:37;18.11;;;16.2;;
82656;SDS011;72357;52.110;5.252;2023-08-30T02:58:14;17.61;;;15.8;;
82656;SDS011;72357;52.110;5.252;2023-08-30T02:59:50;19.3;;;16.2;;
82656;SDS011;72357;52.110;5.252;2023-08-30T03:03:02;17.3;;;15.4;;
82656;SDS011;72357;52.110;5.252;2023-08-30T03:04:39;19.3;;;17.3;;
82656;SDS011;72357;52.110;5.252;2023-08-30T03:06:15;19.8;;;17.3;;
82656;SDS011;72357;52.110;5.252;2023-08-30T03:07:52;18.5;;;16.61;;
82656;SDS011;72357;52.110;5.252;2023-08-30T03:11:08;19.5;;;17.11;;
82656;SDS011;72357;52.110;5.252;2023-08-30T03:12:45;18.61;;;16.7;;
82656;SDS011;72357;52.110;5.252;2023-08-30T03:14:21;18.7;;;16.8;;
82656;SDS011;72357;52.110;5.252;2023-08-30T03:17:33;19.0;;;17.0;;
82656;SDS011;72357;52.110;5.252;2023-08-30T03:19:10;19.2;;;17.11;;
82656;SDS011;72357;52.110;5.252;2023-08-30T03:20:46;21.1;;;18.7;;
82656;SDS011;72357;52.110;5.252;2023-08-30T03:23:59;21.9;;;18.3;;
82656;SDS011;72357;52.110;5.252;2023-08-30T03:25:35;20.2;;;18.11;;
82656;SDS011;72357;52.110;5.252;2023-08-30T03:27:11;19.91;;;17.5;;
82656;SDS011;72357;52.110;5.252;2023-08-30T03:28:47;19.0;;;17.0;;
82656;SDS011;72357;52.110;5.252;2023-08-30T03:31:59;19.2;;;17.2;;
82656;SDS011;72357;52.110;5.252;2023-08-30T03:33:35;22.1;;;18.2;;
82656;SDS011;72357;52.110;5.252;2023-08-30T03:35:12;19.2;;;17.3;;
82656;SDS011;72357;52.110;5.252;2023-08-30T03:38:24;20.5;;;17.11;;
82656;SDS011;72357;52.110;5.252;2023-08-30T03:41:36;22.3;;;19.8;;
82656;SDS011;72357;52.110;5.252;2023-08-30T03:44:48;24.3;;;20.5;;
82656;SDS011;72357;52.110;5.252;2023-08-30T03:46:24;23.3;;;20.11;;
82656;SDS011;72357;52.110;5.252;2023-08-30T03:48:00;22.7;;;19.91;;
82656;SDS011;72357;52.110;5.252;2023-08-30T03:49:36;25.3;;;20.7;;
82656;SDS011;72357;52.110;5.252;2023-08-30T03:52:49;23.4;;;20.3;;
82656;SDS011;72357;52.110;5.252;2023-08-30T03:54:25;24.0;;;20.11;;
82656;SDS011;72357;52.110;5.252;2023-08-30T03:56:01;23.2;;;20.41;;
82656;SDS011;72357;52.110;5.252;2023-08-30T03:59:13;23.8;;;21.2;;
82656;SDS011;72357;52.110;5.252;2023-08-30T04:00:49;25.9;;;21.7;;
82656;SDS011;72357;52.110;5.252;2023-08-30T04:02:25;23.8;;;21.3;;
82656;SDS011;72357;52.110;5.252;2023-08-30T04:05:38;25.1;;;21.9;;
82656;SDS011;72357;52.110;5.252;2023-08-30T04:07:14;25.3;;;21.6;;
82656;SDS011;72357;52.110;5.252;2023-08-30T04:08:50;24.1;;;21.5;;
82656;SDS011;72357;52.110;5.252;2023-08-30T04:12:02;24.3;;;20.6;;
82656;SDS011;72357;52.110;5.252;2023-08-30T04:13:39;27.1;;;22.7;;
82656;SDS011;72357;52.110;5.252;2023-08-30T04:15:15;27.1;;;21.3;;
82656;SDS011;72357;52.110;5.252;2023-08-30T04:16:52;24.9;;;22.2;;
82656;SDS011;72357;52.110;5.252;2023-08-30T04:20:05;25.8;;;22.6;;
82656;SDS011;72357;52.110;5.252;2023-08-30T04:21:43;23.0;;;20.2;;
82656;SDS011;72357;52.110;5.252;2023-08-30T04:23:19;23.4;;;21.0;;
82656;SDS011;72357;52.110;5.252;2023-08-30T04:26:31;26.7;;;21.4;;
82656;SDS011;72357;52.110;5.252;2023-08-30T04:28:07;26.3;;;22.9;;
82656;SDS011;72357;52.110;5.252;2023-08-30T04:29:43;26.0;;;23.2;;
82656;SDS011;72357;52.110;5.252;2023-08-30T04:32:56;27.1;;;22.9;;
82656;SDS011;72357;52.110;5.252;2023-08-30T04:34:32;26.2;;;21.9;;
82656;SDS011;72357;52.110;5.252;2023-08-30T04:36:08;26.3;;;21.7;;
82656;SDS011;72357;52.110;5.252;2023-08-30T04:37:44;26.8;;;22.8;;
82656;SDS011;72357;52.110;5.252;2023-08-30T04:40:56;25.7;;;21.9;;
82656;SDS011;72357;52.110;5.252;2023-08-30T04:42:33;25.0;;;22.1;;
82656;SDS011;72357;52.110;5.252;2023-08-30T04:44:09;27.1;;;23.1;;
82656;SDS011;72357;52.110;5.252;2023-08-30T04:47:23;24.5;;;21.5;;
82656;SDS011;72357;52.110;5.252;2023-08-30T04:49:00;22.8;;;20.3;;
82656;SDS011;72357;52.110;5.252;2023-08-30T04:50:36;22.9;;;20.5;;
82656;SDS011;72357;52.110;5.252;2023-08-30T04:53:48;25.2;;;21.9;;
82656;SDS011;72357;52.110;5.252;2023-08-30T04:55:24;24.9;;;21.9;;
82656;SDS011;72357;52.110;5.252;2023-08-30T04:57:00;24.7;;;21.7;;
82656;SDS011;72357;52.110;5.252;2023-08-30T05:00:13;25.1;;;22.3;;
82656;SDS011;72357;52.110;5.252;2023-08-30T05:01:49;26.0;;;21.9;;
82656;SDS011;72357;52.110;5.252;2023-08-30T05:03:26;25.9;;;21.9;;
82656;SDS011;72357;52.110;5.252;2023-08-30T05:05:02;27.8;;;23.5;;
82656;SDS011;72357;52.110;5.252;2023-08-30T05:08:14;28.1;;;22.0;;
82656;SDS011;72357;52.110;5.252;2023-08-30T05:09:50;25.5;;;22.0;;
82656;SDS011;72357;52.110;5.252;2023-08-30T05:11:26;28.6;;;22.2;;
82656;SDS011;72357;52.110;5.252;2023-08-30T05:14:38;24.2;;;21.6;;
82656;SDS011;72357;52.110;5.252;2023-08-30T05:16:14;23.1;;;20.7;;
82656;SDS011;72357;52.110;5.252;2023-08-30T05:17:50;23.1;;;20.7;;
82656;SDS011;72357;52.110;5.252;2023-08-30T05:21:03;22.5;;;19.8;;
82656;SDS011;72357;52.110;5.252;2023-08-30T05:22:40;25.5;;;21.3;;
82656;SDS011;72357;52.110;5.252;2023-08-30T05:24:16;25.5;;;20.41;;
82656;SDS011;72357;52.110;5.252;2023-08-30T05:25:52;22.3;;;19.0;;
82656;SDS011;72357;52.110;5.252;2023-08-30T05:29:04;22.4;;;19.3;;
82656;SDS011;72357;52.110;5.252;2023-08-30T05:30:41;24.4;;;20.0;;
82656;SDS011;72357;52.110;5.252;2023-08-30T05:32:18;24.4;;;20.0;;
82656;SDS011;72357;52.110;5.252;2023-08-30T05:35:31;21.3;;;18.41;;
82656;SDS011;72357;52.110;5.252;2023-08-30T05:37:07;21.7;;;18.61;;
82656;SDS011;72357;52.110;5.252;2023-08-30T05:38:43;19.91;;;17.8;;
82656;SDS011;72357;52.110;5.252;2023-08-30T05:41:55;22.5;;;17.91;;
82656;SDS011;72357;52.110;5.252;2023-08-30T05:43:32;20.6;;;18.41;;
82656;SDS011;72357;52.110;5.252;2023-08-30T05:45:08;20.9;;;18.0;;
82656;SDS011;72357;52.110;5.252;2023-08-30T05:48:22;19.91;;;17.7;;
82656;SDS011;72357;52.110;5.252;2023-08-30T05:49:58;21.7;;;18.41;;
82656;SDS011;72357;52.110;5.252;2023-08-30T05:51:34;19.11;;;17.11;;
82656;SDS011;72357;52.110;5.252;2023-08-30T05:53:10;19.3;;;17.2;;
82656;SDS011;72357;52.110;5.252;2023-08-30T05:56:24;20.9;;;17.61;;
82656;SDS011;72357;52.110;5.252;2023-08-30T05:58:00;20.3;;;17.2;;
82656;SDS011;72357;52.110;5.252;2023-08-30T05:59:36;19.11;;;16.9;;
82656;SDS011;72357;52.110;5.252;2023-08-30T06:02:49;20.6;;;18.0;;
82656;SDS011;72357;52.110;5.252;2023-08-30T06:04:26;18.5;;;16.11;;
82656;SDS011;72357;52.110;5.252;2023-08-30T06:06:02;19.61;;;16.61;;
82656;SDS011;72357;52.110;5.252;2023-08-30T06:09:14;20.0;;;17.61;;
82656;SDS011;72357;52.110;5.252;2023-08-30T06:10:50;20.0;;;17.61;;
82656;SDS011;72357;52.110;5.252;2023-08-30T06:12:26;20.11;;;17.11;;
82656;SDS011;72357;52.110;5.252;2023-08-30T06:14:02;20.5;;;17.8;;
82656;SDS011;72357;52.110;5.252;2023-08-30T06:17:14;19.11;;;17.0;;
82656;SDS011;72357;52.110;5.252;2023-08-30T06:18:50;22.2;;;19.0;;
82656;SDS011;72357;52.110;5.252;2023-08-30T06:20:27;21.8;;;18.3;;
82656;SDS011;72357;52.110;5.252;2023-08-30T06:23:41;21.1;;;18.8;;
82656;SDS011;72357;52.110;5.252;2023-08-30T06:25:17;19.5;;;17.5;;
82656;SDS011;72357;52.110;5.252;2023-08-30T06:26:53;19.5;;;17.5;;
82656;SDS011;72357;52.110;5.252;2023-08-30T06:30:06;22.8;;;20.2;;
82656;SDS011;72357;52.110;5.252;2023-08-30T06:31:42;24.5;;;18.8;;
82656;SDS011;72357;52.110;5.252;2023-08-30T06:33:19;23.1;;;19.8;;
82656;SDS011;72357;52.110;5.252;2023-08-30T06:34:55;27.8;;;23.0;;
82656;SDS011;72357;52.110;5.252;2023-08-30T06:38:08;29.2;;;23.9;;
82656;SDS011;72357;52.110;5.252;2023-08-30T06:39:44;32.5;;;25.2;;
82656;SDS011;72357;52.110;5.252;2023-08-30T06:41:20;30.3;;;24.9;;
82656;SDS011;72357;52.110;5.252;2023-08-30T06:44:32;32.21;;;24.7;;
82656;SDS011;72357;52.110;5.252;2023-08-30T06:46:08;29.1;;;23.7;;
82656;SDS011;72357;52.110;5.252;2023-08-30T06:47:44;35.5;;;25.5;;
82656;SDS011;72357;52.110;5.252;2023-08-30T06:50:57;33.3;;;24.4;;
82656;SDS011;72357;52.110;5.252;2023-08-30T06:52:34;27.1;;;23.6;;
82656;SDS011;72357;52.110;5.252;2023-08-30T06:54:10;33.71;;;25.8;;
82656;SDS011;72357;52.110;5.252;2023-08-30T06:57:32;30.7;;;23.7;;
82656;SDS011;72357;52.110;5.252;2023-08-30T06:59:09;31.6;;;26.0;;
82656;SDS011;72357;52.110;5.252;2023-08-30T07:00:45;34.4;;;26.4;;
82656;SDS011;72357;52.110;5.252;2023-08-30T07:02:21;30.1;;;24.9;;
82656;SDS011;72357;52.110;5.252;2023-08-30T07:05:33;34.0;;;27.3;;
82656;SDS011;72357;52.110;5.252;2023-08-30T07:07:11;30.9;;;24.5;;
82656;SDS011;72357;52.110;5.252;2023-08-30T07:08:47;31.3;;;25.4;;
82656;SDS011;72357;52.110;5.252;2023-08-30T07:12:00;27.3;;;23.6;;
82656;SDS011;72357;52.110;5.252;2023-08-30T07:13:35;31.9;;;25.0;;
82656;SDS011;72357;52.110;5.252;2023-08-30T07:15:12;33.21;;;25.7;;
82656;SDS011;72357;52.110;5.252;2023-08-30T07:16:50;34.4;;;26.0;;
82656;SDS011;72357;52.110;5.252;2023-08-30T07:20:02;35.31;;;26.9;;
82656;SDS011;72357;52.110;5.252;2023-08-30T07:21:39;33.0;;;24.0;;
82656;SDS011;72357;52.110;5.252;2023-08-30T07:23:16;27.5;;;24.6;;
82656;SDS011;72357;52.110;5.252;2023-08-30T07:26:28;38.71;;;28.9;;
82656;SDS011;72357;52.110;5.252;2023-08-30T07:28:04;34.1;;;26.8;;
82656;SDS011;72357;52.110;5.252;2023-08-30T07:29:41;32.71;;;26.1;;
82656;SDS011;72357;52.110;5.252;2023-08-30T07:32:53;43.2;;;31.2;;
82656;SDS011;72357;52.110;5.252;2023-08-30T07:34:29;35.21;;;26.7;;
82656;SDS011;72357;52.110;5.252;2023-08-30T07:36:05;40.6;;;29.9;;
82656;SDS011;72357;52.110;5.252;2023-08-30T07:37:41;46.9;;;33.0;;
82656;SDS011;72357;52.110;5.252;2023-08-30T07:40:54;43.9;;;31.4;;
82656;SDS011;72357;52.110;5.252;2023-08-30T07:42:30;34.71;;;26.2;;
82656;SDS011;72357;52.110;5.252;2023-08-30T07:44:06;36.71;;;26.7;;
82656;SDS011;72357;52.110;5.252;2023-08-30T07:47:18;29.9;;;23.5;;
82656;SDS011;72357;52.110;5.252;2023-08-30T07:48:54;36.1;;;26.7;;
82656;SDS011;72357;52.110;5.252;2023-08-30T07:50:30;32.9;;;24.1;;
82656;SDS011;72357;52.110;5.252;2023-08-30T07:53:43;38.21;;;27.8;;
82656;SDS011;72357;52.110;5.252;2023-08-30T07:55:19;39.5;;;27.9;;
82656;SDS011;72357;52.110;5.252;2023-08-30T07:56:55;44.0;;;30.2;;
82656;SDS011;72357;52.110;5.252;2023-08-30T08:00:08;38.4;;;26.9;;
82656;SDS011;72357;52.110;5.252;2023-08-30T08:01:45;34.1;;;25.5;;
82656;SDS011;72357;52.110;5.252;2023-08-30T08:03:21;36.71;;;26.3;;
82656;SDS011;72357;52.110;5.252;2023-08-30T08:04:57;31.0;;;23.5;;
82656;SDS011;72357;52.110;5.252;2023-08-30T08:08:10;32.6;;;23.7;;
82656;SDS011;72357;52.110;5.252;2023-08-30T08:09:46;33.4;;;24.0;;
82656;SDS011;72357;52.110;5.252;2023-08-30T08:11:22;35.21;;;24.8;;
82656;SDS011;72357;52.110;5.252;2023-08-30T08:14:34;34.81;;;23.9;;
82656;SDS011;72357;52.110;5.252;2023-08-30T08:16:10;32.1;;;23.0;;
82656;SDS011;72357;52.110;5.252;2023-08-30T08:17:47;31.2;;;22.6;;
82656;SDS011;72357;52.110;5.252;2023-08-30T08:21:00;31.9;;;22.2;;
82656;SDS011;72357;52.110;5.252;2023-08-30T08:22:37;24.2;;;19.41;;
82656;SDS011;72357;52.110;5.252;2023-08-30T08:24:13;28.1;;;20.8;;
82656;SDS011;72357;52.110;5.252;2023-08-30T08:25:49;27.0;;;19.91;;
82656;SDS011;72357;52.110;5.252;2023-08-30T08:29:01;21.9;;;18.41;;
82656;SDS011;72357;52.110;5.252;2023-08-30T08:30:37;28.0;;;19.8;;
82656;SDS011;72357;52.110;5.252;2023-08-30T08:32:13;25.6;;;18.61;;
82656;SDS011;72357;52.110;5.252;2023-08-30T08:35:40;27.9;;;21.0;;
82656;SDS011;72357;52.110;5.252;2023-08-30T08:37:16;25.6;;;19.3;;
82656;SDS011;72357;52.110;5.252;2023-08-30T08:38:52;30.7;;;21.8;;
82656;SDS011;72357;52.110;5.252;2023-08-30T08:40:28;19.5;;;16.4;;
82656;SDS011;72357;52.110;5.252;2023-08-30T08:43:41;22.8;;;16.61;;
82656;SDS011;72357;52.110;5.252;2023-08-30T08:45:18;23.3;;;16.8;;
82656;SDS011;72357;52.110;5.252;2023-08-30T08:46:55;19.0;;;15.9;;
82656;SDS011;72357;52.110;5.252;2023-08-30T08:50:14;26.4;;;19.91;;
82656;SDS011;72357;52.110;5.252;2023-08-30T08:51:51;26.9;;;19.41;;
82656;SDS011;72357;52.110;5.252;2023-08-30T08:53:28;24.2;;;17.8;;
82656;SDS011;72357;52.110;5.252;2023-08-30T08:55:05;17.3;;;14.7;;
82656;SDS011;72357;52.110;5.252;2023-08-30T08:58:19;22.3;;;17.2;;
82656;SDS011;72357;52.110;5.252;2023-08-30T08:59:55;26.9;;;18.11;;
82656;SDS011;72357;52.110;5.252;2023-08-30T09:01:32;24.1;;;19.0;;
82656;SDS011;72357;52.110;5.252;2023-08-30T09:04:46;24.0;;;18.2;;
82656;SDS011;72357;52.110;5.252;2023-08-30T09:06:22;23.3;;;16.8;;
82656;SDS011;72357;52.110;5.252;2023-08-30T09:07:59;24.4;;;18.11;;
82656;SDS011;72357;52.110;5.252;2023-08-30T09:11:14;21.4;;;16.61;;
82656;SDS011;72357;52.110;5.252;2023-08-30T09:12:50;21.5;;;16.4;;
82656;SDS011;72357;52.110;5.252;2023-08-30T09:14:26;22.5;;;16.8;;
82656;SDS011;72357;52.110;5.252;2023-08-30T09:16:02;22.2;;;18.0;;
82656;SDS011;72357;52.110;5.252;2023-08-30T09:19:22;24.6;;;17.5;;
82656;SDS011;72357;52.110;5.252;2023-08-30T09:21:04;20.0;;;16.2;;
82656;SDS011;72357;52.110;5.252;2023-08-30T09:22:41;17.41;;;14.6;;
82656;SDS011;72357;52.110;5.252;2023-08-30T09:25:55;18.5;;;15.5;;
82656;SDS011;72357;52.110;5.252;2023-08-30T09:27:31;24.8;;;19.0;;
82656;SDS011;72357;52.110;5.252;2023-08-30T09:29:09;22.4;;;17.3;;
82656;SDS011;72357;52.110;5.252;2023-08-30T09:30:48;23.4;;;18.61;;
82656;SDS011;72357;52.110;5.252;2023-08-30T09:34:00;16.7;;;15.0;;
82656;SDS011;72357;52.110;5.252;2023-08-30T09:35:43;23.2;;;19.11;;
82656;SDS011;72357;52.110;5.252;2023-08-30T09:37:20;21.4;;;18.0;;
82656;SDS011;72357;52.110;5.252;2023-08-30T09:40:33;29.6;;;23.6;;
82656;SDS011;72357;52.110;5.252;2023-08-30T09:42:09;26.4;;;20.3;;
82656;SDS011;72357;52.110;5.252;2023-08-30T09:43:46;28.3;;;21.3;;
82656;SDS011;72357;52.110;5.252;2023-08-30T09:45:22;19.2;;;17.3;;
82656;SDS011;72357;52.110;5.252;2023-08-30T09:48:34;19.61;;;17.5;;
82656;SDS011;72357;52.110;5.252;2023-08-30T09:50:13;31.6;;;24.9;;
82656;SDS011;72357;52.110;5.252;2023-08-30T09:51:54;27.4;;;22.1;;
82656;SDS011;72357;52.110;5.252;2023-08-30T09:55:13;26.9;;;23.9;;
82656;SDS011;72357;52.110;5.252;2023-08-30T09:56:50;25.8;;;23.0;;
82656;SDS011;72357;52.110;5.252;2023-08-30T09:58:27;23.1;;;20.7;;
82656;SDS011;72357;52.110;5.252;2023-08-30T10:00:05;26.6;;;23.7;;
82656;SDS011;72357;52.110;5.252;2023-08-30T10:04:57;24.8;;;22.3;;
82656;SDS011;72357;52.110;5.252;2023-08-30T10:06:34;22.5;;;20.41;;
82656;SDS011;72357;52.110;5.252;2023-08-30T10:09:50;24.5;;;22.0;;
82656;SDS011;72357;52.110;5.252;2023-08-30T10:11:27;34.6;;;29.0;;
82656;SDS011;72357;52.110;5.252;2023-08-30T10:13:05;25.0;;;22.5;;
82656;SDS011;72357;52.110;5.252;2023-08-30T10:14:41;22.4;;;20.3;;
82656;SDS011;72357;52.110;5.252;2023-08-30T10:17:57;24.8;;;22.3;;
82656;SDS011;72357;52.110;5.252;2023-08-30T10:19:34;22.4;;;20.5;;
82656;SDS011;72357;52.110;5.252;2023-08-30T10:21:13;32.1;;;28.9;;
82656;SDS011;72357;52.110;5.252;2023-08-30T10:24:35;24.8;;;22.5;;
82656;SDS011;72357;52.110;5.252;2023-08-30T10:26:15;25.2;;;22.8;;
82656;SDS011;72357;52.110;5.252;2023-08-30T10:27:53;25.4;;;23.1;;
82656;SDS011;72357;52.110;5.252;2023-08-30T10:29:31;24.8;;;22.4;;
82656;SDS011;72357;52.110;5.252;2023-08-30T10:32:49;23.7;;;21.5;;
82656;SDS011;72357;52.110;5.252;2023-08-30T10:34:31;23.5;;;21.4;;
82656;SDS011;72357;52.110;5.252;2023-08-30T10:36:08;22.8;;;20.7;;
82656;SDS011;72357;52.110;5.252;2023-08-30T10:37:53;22.6;;;20.6;;
82656;SDS011;72357;52.110;5.252;2023-08-30T10:41:11;14.6;;;13.3;;
82656;SDS011;72357;52.110;5.252;2023-08-30T10:42:51;14.6;;;13.3;;
82656;SDS011;72357;52.110;5.252;2023-08-30T10:44:34;11.4;;;10.3;;
82656;SDS011;72357;52.110;5.252;2023-08-30T10:46:10;10.8;;;9.5;;
82656;SDS011;72357;52.110;5.252;2023-08-30T10:49:38;10.7;;;9.71;;
82656;SDS011;72357;52.110;5.252;2023-08-30T10:51:20;14.2;;;9.6;;
82656;SDS011;72357;52.110;5.252;2023-08-30T10:52:57;11.1;;;8.2;;
82656;SDS011;72357;52.110;5.252;2023-08-30T10:54:36;9.31;;;6.4;;
82656;SDS011;72357;52.110;5.252;2023-08-30T10:57:57;9.21;;;5.8;;
82656;SDS011;72357;52.110;5.252;2023-08-30T10:59:35;10.21;;;5.7;;
82656;SDS011;72357;52.110;5.252;2023-08-30T11:01:11;11.2;;;5.7;;
82656;SDS011;72357;52.110;5.252;2023-08-30T11:02:49;10.21;;;5.8;;
82656;SDS011;72357;52.110;5.252;2023-08-30T11:06:03;10.4;;;5.5;;
82656;SDS011;72357;52.110;5.252;2023-08-30T11:07:39;10.1;;;5.2;;
82656;SDS011;72357;52.110;5.252;2023-08-30T11:09:15;13.4;;;6.7;;
82656;SDS011;72357;52.110;5.252;2023-08-30T11:12:39;8.31;;;4.91;;
82656;SDS011;72357;52.110;5.252;2023-08-30T11:14:17;9.31;;;5.8;;
82656;SDS011;72357;52.110;5.252;2023-08-30T11:15:54;8.1;;;4.91;;
82656;SDS011;72357;52.110;5.252;2023-08-30T11:17:35;11.5;;;5.4;;
82656;SDS011;72357;52.110;5.252;2023-08-30T11:20:47;8.9;;;4.8;;
82656;SDS011;72357;52.110;5.252;2023-08-30T11:22:24;7.4;;;4.7;;
82656;SDS011;72357;52.110;5.252;2023-08-30T11:24:01;8.5;;;5.11;;
82656;SDS011;72357;52.110;5.252;2023-08-30T11:27:16;10.8;;;5.6;;
82656;SDS011;72357;52.110;5.252;2023-08-30T11:28:53;10.7;;;6.3;;
82656;SDS011;72357;52.110;5.252;2023-08-30T11:30:29;10.9;;;6.0;;
82656;SDS011;72357;52.110;5.252;2023-08-30T11:32:07;11.7;;;6.8;;
82656;SDS011;72357;52.110;5.252;2023-08-30T11:35:25;10.7;;;6.2;;
82656;SDS011;72357;52.110;5.252;2023-08-30T11:37:01;10.7;;;6.2;;
82656;SDS011;72357;52.110;5.252;2023-08-30T11:38:38;9.31;;;5.7;;
82656;SDS011;72357;52.110;5.252;2023-08-30T11:41:50;10.9;;;5.6;;
82656;SDS011;72357;52.110;5.252;2023-08-30T11:43:26;13.4;;;6.5;;
82656;SDS011;72357;52.110;5.252;2023-08-30T11:45:03;13.6;;;6.6;;
82656;SDS011;72357;52.110;5.252;2023-08-30T11:46:40;12.0;;;6.3;;
82656;SDS011;72357;52.110;5.252;2023-08-30T11:49:53;10.0;;;5.3;;
82656;SDS011;72357;52.110;5.252;2023-08-30T11:51:31;11.2;;;6.1;;
82656;SDS011;72357;52.110;5.252;2023-08-30T11:53:09;13.1;;;6.4;;
82656;SDS011;72357;52.110;5.252;2023-08-30T11:56:23;10.3;;;6.6;;
82656;SDS011;72357;52.110;5.252;2023-08-30T11:58:00;15.7;;;7.2;;
82656;SDS011;72357;52.110;5.252;2023-08-30T11:59:38;9.5;;;4.7;;
82656;SDS011;72357;52.110;5.252;2023-08-30T12:02:50;10.9;;;4.5;;
82656;SDS011;72357;52.110;5.252;2023-08-30T12:04:26;11.9;;;4.91;;
82656;SDS011;72357;52.110;5.252;2023-08-30T12:06:08;12.8;;;5.2;;
82656;SDS011;72357;52.110;5.252;2023-08-30T12:07:46;13.9;;;5.2;;
82656;SDS011;72357;52.110;5.252;2023-08-30T12:10:58;8.81;;;4.2;;
82656;SDS011;72357;52.110;5.252;2023-08-30T12:12:34;9.9;;;4.2;;
82656;SDS011;72357;52.110;5.252;2023-08-30T12:14:10;10.8;;;4.3;;
82656;SDS011;72357;52.110;5.252;2023-08-30T12:17:22;12.1;;;4.0;;
82656;SDS011;72357;52.110;5.252;2023-08-30T12:19:06;12.1;;;4.0;;
82656;SDS011;72357;52.110;5.252;2023-08-30T12:20:51;9.71;;;3.7;;
82656;SDS011;72357;52.110;5.252;2023-08-30T12:22:35;12.1;;;3.9;;
82656;SDS011;72357;52.110;5.252;2023-08-30T12:25:58;9.81;;;3.6;;
82656;SDS011;72357;52.110;5.252;2023-08-30T12:27:36;8.4;;;3.1;;
82656;SDS011;72357;52.110;5.252;2023-08-30T12:29:15;9.81;;;3.1;;
82656;SDS011;72357;52.110;5.252;2023-08-30T12:30:51;10.7;;;3.8;;
82656;SDS011;72357;52.110;5.252;2023-08-30T12:34:04;7.6;;;2.7;;
82656;SDS011;72357;52.110;5.252;2023-08-30T12:35:40;8.2;;;2.6;;
82656;SDS011;72357;52.110;5.252;2023-08-30T12:37:16;7.2;;;2.9;;
82656;SDS011;72357;52.110;5.252;2023-08-30T12:40:29;6.9;;;2.8;;